Time;durP1;ratioP1;P1;durP2;ratioP2;P2;SDS_P1;SDS_P2;PMS_P1;PMS_P2;Temp;Humidity;BMP_temperature;BMP_pressure;BME280_temperature;BME280_humidity;BME280_pressure;Samples;Min_cycle;Max_cycle;Signal;HPM_P1;HPM_P2
2022/01/15 00:01:02;;;;;;;8.60;5.83;;;5.50;99.90;;;;;;5074048;28;20198;-74
2022/01/15 00:03:30;;;;;;;9.97;5.83;;;5.50;99.90;;;;;;5073314;28;20302;-73
2022/01/15 00:05:57;;;;;;;9.60;6.13;;;5.60;99.90;;;;;;5080896;28;20205;-74
2022/01/15 00:08:25;;;;;;;8.90;5.80;;;5.60;99.90;;;;;;5089096;28;20221;-74
2022/01/15 00:10:52;;;;;;;9.03;5.70;;;5.50;99.90;;;;;;5077089;28;20200;-74
2022/01/15 00:13:26;;;;;;;9.67;5.80;;;5.60;99.90;;;;;;5095898;28;20219;-74
2022/01/15 00:16:03;;;;;;;9.40;5.77;;;5.50;99.90;;;;;;5091599;28;20210;-74
2022/01/15 00:18:45;;;;;;;8.23;5.27;;;5.50;99.90;;;;;;5086973;28;20197;-67
2022/01/15 00:21:14;;;;;;;8.70;5.33;;;5.50;99.90;;;;;;5084925;28;20197;-74
2022/01/15 00:23:41;;;;;;;10.00;5.90;;;5.50;99.90;;;;;;5089911;28;20683;-67
2022/01/15 00:26:08;;;;;;;8.43;5.77;;;5.50;99.90;;;;;;5088061;28;20198;-67
2022/01/15 00:28:35;;;;;;;9.07;5.60;;;5.50;99.90;;;;;;5091273;28;20190;-67
2022/01/15 00:31:01;;;;;;;9.40;6.00;;;5.50;99.90;;;;;;5074072;28;20569;-67
2022/01/15 00:33:30;;;;;;;9.63;6.07;;;5.50;99.90;;;;;;5077359;28;20189;-67
2022/01/15 00:35:59;;;;;;;9.43;6.37;;;5.50;99.90;;;;;;5083047;28;20194;-68
2022/01/15 00:38:26;;;;;;;10.27;6.33;;;5.50;99.90;;;;;;5096165;28;20212;-67
2022/01/15 00:40:53;;;;;;;10.37;6.43;;;5.50;99.90;;;;;;5092564;28;20204;-67
2022/01/15 00:43:20;;;;;;;10.47;6.80;;;5.60;99.90;;;;;;5085499;28;20225;-67
2022/01/15 00:45:47;;;;;;;11.57;7.17;;;5.50;99.90;;;;;;5075281;28;20660;-67
2022/01/15 00:48:14;;;;;;;10.77;6.47;;;5.50;99.90;;;;;;5088954;28;20205;-67
2022/01/15 00:50:41;;;;;;;12.17;7.77;;;5.60;99.90;;;;;;5078968;28;20285;-67
2022/01/15 00:53:10;;;;;;;11.20;6.50;;;5.50;99.90;;;;;;5087726;28;20212;-67
2022/01/15 00:55:37;;;;;;;11.93;6.47;;;5.50;99.90;;;;;;5095108;28;20197;-67
2022/01/15 00:58:03;;;;;;;9.80;6.90;;;5.50;99.90;;;;;;5095844;28;20213;-67
2022/01/15 01:00:31;;;;;;;10.50;6.83;;;5.60;99.90;;;;;;5092595;28;20550;-67
2022/01/15 01:02:58;;;;;;;11.70;6.70;;;5.50;99.90;;;;;;5084265;28;20225;-67
2022/01/15 01:05:24;;;;;;;11.57;7.33;;;5.50;99.90;;;;;;5094997;28;20202;-67
2022/01/15 01:07:51;;;;;;;13.53;7.70;;;5.50;99.90;;;;;;5087389;28;20198;-66
2022/01/15 01:10:46;;;;;;;14.33;7.97;;;5.50;99.90;;;;;;5095211;28;20215;-67
2022/01/15 01:13:38;;;;;;;15.97;8.17;;;5.60;99.90;;;;;;5092507;28;20792;-67
2022/01/15 01:24:46;;;;;;;12.77;7.57;;;5.50;99.90;;;;;;5074835;28;20244;-67
2022/01/15 01:27:20;;;;;;;13.20;8.00;;;5.50;99.90;;;;;;5090462;28;20206;-67
2022/01/15 01:30:04;;;;;;;11.20;7.27;;;5.50;99.90;;;;;;5092139;28;20228;-67
2022/01/15 01:32:48;;;;;;;16.80;8.73;;;5.60;99.90;;;;;;5083308;28;20664;-67
2022/01/15 01:35:28;;;;;;;14.47;7.83;;;5.60;99.90;;;;;;5094460;28;20197;-68
2022/01/15 01:37:58;;;;;;;13.10;7.83;;;5.60;99.90;;;;;;5094008;28;20627;-67
2022/01/15 01:40:36;;;;;;;13.57;8.23;;;5.60;99.90;;;;;;5094762;28;20201;-67
2022/01/15 01:43:15;;;;;;;13.77;8.23;;;5.60;99.90;;;;;;5091538;28;20229;-67
2022/01/15 01:45:46;;;;;;;14.47;7.83;;;5.60;99.90;;;;;;5091284;28;20254;-67
2022/01/15 01:48:13;;;;;;;13.90;8.73;;;5.60;99.90;;;;;;5094326;28;20202;-67
2022/01/15 01:50:40;;;;;;;15.67;8.33;;;5.60;99.90;;;;;;5090792;28;20213;-67
2022/01/15 01:53:07;;;;;;;17.30;9.37;;;5.60;99.90;;;;;;5084778;28;20194;-68
2022/01/15 01:55:34;;;;;;;17.70;9.57;;;5.60;99.90;;;;;;5082968;28;20309;-74
2022/01/15 01:58:01;;;;;;;16.00;9.50;;;5.60;99.90;;;;;;5093483;28;20202;-74
2022/01/15 02:00:31;;;;;;;15.43;8.67;;;5.60;99.90;;;;;;5080313;28;20198;-74
2022/01/15 02:02:58;;;;;;;16.53;9.40;;;5.50;99.90;;;;;;5075944;28;20218;-74
2022/01/15 02:05:25;;;;;;;14.67;8.00;;;5.50;99.90;;;;;;5074707;28;20206;-74
2022/01/15 02:07:52;;;;;;;14.60;8.60;;;5.50;99.90;;;;;;5088312;28;20200;-74
2022/01/15 02:10:21;;;;;;;15.07;8.80;;;5.40;99.90;;;;;;5086390;28;20555;-74
2022/01/15 02:12:50;;;;;;;17.03;9.83;;;5.40;99.90;;;;;;5093959;28;20197;-74
2022/01/15 02:15:19;;;;;;;19.43;10.20;;;5.50;99.90;;;;;;5091386;28;20212;-74
2022/01/15 02:17:48;;;;;;;16.33;9.07;;;5.50;99.90;;;;;;5088416;28;20197;-74
2022/01/15 02:20:49;;;;;;;13.37;7.70;;;5.40;99.90;;;;;;5080967;28;20195;-74
2022/01/15 02:23:33;;;;;;;17.23;9.60;;;5.40;99.90;;;;;;5079311;28;20625;-74
2022/01/15 02:26:02;;;;;;;16.90;10.00;;;5.40;99.90;;;;;;5077552;28;20201;-74
2022/01/15 02:28:33;;;;;;;14.93;8.50;;;5.40;99.90;;;;;;5093820;28;20200;-74
2022/01/15 02:31:02;;;;;;;16.27;9.07;;;5.50;99.90;;;;;;5093671;28;20204;-74
2022/01/15 02:33:30;;;;;;;17.40;10.27;;;5.50;99.90;;;;;;5093114;28;20190;-74
2022/01/15 02:35:58;;;;;;;18.27;9.67;;;5.40;99.90;;;;;;5092934;28;20202;-74
2022/01/15 02:38:26;;;;;;;17.30;9.20;;;5.40;99.90;;;;;;5093594;28;20185;-74
2022/01/15 02:40:53;;;;;;;17.37;9.30;;;5.40;99.90;;;;;;5093268;28;20633;-74
2022/01/15 02:43:28;;;;;;;16.40;8.77;;;5.40;99.90;;;;;;5088091;28;20217;-74
2022/01/15 02:45:55;;;;;;;15.83;9.27;;;5.50;99.90;;;;;;5073496;28;20664;-74
2022/01/15 02:48:24;;;;;;;16.27;8.50;;;5.40;99.90;;;;;;5074103;28;20289;-74
2022/01/15 02:50:51;;;;;;;16.60;9.37;;;5.40;99.90;;;;;;5090377;28;20284;-74
2022/01/15 02:53:20;;;;;;;17.17;9.70;;;5.40;99.90;;;;;;5093361;28;20227;-74
2022/01/15 02:55:48;;;;;;;13.97;8.27;;;5.40;99.90;;;;;;5092597;28;20194;-74
2022/01/15 02:58:16;;;;;;;17.93;9.53;;;5.40;99.90;;;;;;5091762;28;20202;-74
2022/01/15 03:00:43;;;;;;;16.53;9.50;;;5.40;99.90;;;;;;5092258;28;20205;-74
2022/01/15 03:03:10;;;;;;;14.97;8.73;;;5.40;99.90;;;;;;5081317;28;20226;-74
2022/01/15 03:05:37;;;;;;;15.90;8.40;;;5.40;99.90;;;;;;5088309;28;20224;-74
2022/01/15 03:08:05;;;;;;;14.13;8.40;;;5.40;99.90;;;;;;5081557;28;20217;-74
2022/01/15 03:10:33;;;;;;;14.23;8.20;;;5.40;99.90;;;;;;5072693;28;20198;-74
2022/01/15 03:13:01;;;;;;;14.80;8.33;;;5.50;99.90;;;;;;5090782;28;20621;-74
2022/01/15 03:15:28;;;;;;;14.93;8.80;;;5.40;99.90;;;;;;5092080;28;20202;-74
2022/01/15 03:17:55;;;;;;;15.87;9.10;;;5.40;99.90;;;;;;5092470;28;20209;-74
2022/01/15 03:20:22;;;;;;;17.37;8.67;;;5.40;99.90;;;;;;5074109;28;20289;-74
2022/01/15 03:22:49;;;;;;;14.53;8.07;;;5.40;99.90;;;;;;5079160;28;20218;-74
2022/01/15 03:25:16;;;;;;;12.57;7.63;;;5.40;99.90;;;;;;5088313;28;20691;-74
2022/01/15 03:27:45;;;;;;;13.43;7.93;;;5.40;99.90;;;;;;5087928;28;20194;-74
2022/01/15 03:30:12;;;;;;;16.30;9.03;;;5.40;99.90;;;;;;5073399;28;20198;-74
2022/01/15 03:32:43;;;;;;;12.73;7.60;;;5.40;99.90;;;;;;5089624;28;20705;-74
2022/01/15 03:35:12;;;;;;;15.37;8.47;;;5.40;99.90;;;;;;5078956;28;20285;-74
2022/01/15 03:37:39;;;;;;;14.43;7.97;;;5.40;99.90;;;;;;5080732;28;20198;-74
2022/01/15 03:40:08;;;;;;;15.63;7.93;;;5.40;99.90;;;;;;5073632;28;20201;-74
2022/01/15 03:42:35;;;;;;;14.27;7.93;;;5.50;99.90;;;;;;5086413;28;20829;-74
2022/01/15 03:45:05;;;;;;;13.27;7.63;;;5.40;99.90;;;;;;5075215;28;20198;-74
2022/01/15 03:47:32;;;;;;;13.77;7.50;;;5.40;99.90;;;;;;5092028;28;20197;-74
2022/01/15 03:49:58;;;;;;;13.13;7.57;;;5.40;99.90;;;;;;5087285;28;20199;-74
2022/01/15 03:52:25;;;;;;;13.47;7.97;;;5.40;99.90;;;;;;5083785;28;20194;-74
2022/01/15 03:54:53;;;;;;;13.10;7.37;;;5.40;99.90;;;;;;5083103;28;20208;-74
2022/01/15 03:57:20;;;;;;;12.33;7.40;;;5.40;99.90;;;;;;5090587;28;20205;-74
2022/01/15 03:59:46;;;;;;;14.03;7.50;;;5.40;99.90;;;;;;5073821;28;20183;-74
2022/01/15 04:02:15;;;;;;;13.70;8.10;;;5.40;99.90;;;;;;5089134;28;20276;-74
2022/01/15 04:04:42;;;;;;;12.60;7.40;;;5.40;99.90;;;;;;5091201;28;20800;-74
2022/01/15 04:07:09;;;;;;;11.83;7.13;;;5.40;99.90;;;;;;5092051;28;20557;-74
2022/01/15 04:09:36;;;;;;;14.57;7.50;;;5.40;99.90;;;;;;5091553;28;20202;-74
2022/01/15 04:12:03;;;;;;;12.97;7.47;;;5.40;99.90;;;;;;5092913;28;20204;-74
2022/01/15 04:14:30;;;;;;;14.07;7.70;;;5.40;99.90;;;;;;5095256;28;20201;-74
2022/01/15 04:16:57;;;;;;;14.00;7.87;;;5.40;99.90;;;;;;5095635;28;20209;-74
2022/01/15 04:19:28;;;;;;;12.60;7.57;;;5.40;99.90;;;;;;5094870;28;20411;-74
2022/01/15 04:21:55;;;;;;;12.13;7.07;;;5.40;99.90;;;;;;5094534;28;20285;-74
2022/01/15 04:24:22;;;;;;;12.40;6.47;;;5.40;99.90;;;;;;5095158;28;20220;-74
2022/01/15 04:26:49;;;;;;;12.57;7.03;;;5.40;99.90;;;;;;5091621;28;20305;-74
2022/01/15 04:29:16;;;;;;;13.43;7.10;;;5.40;99.90;;;;;;5094655;28;20198;-67
2022/01/15 04:31:51;;;;;;;11.73;6.87;;;5.40;99.90;;;;;;5094845;28;20756;-68
2022/01/15 04:34:20;;;;;;;11.80;6.83;;;5.40;99.90;;;;;;5089421;28;20200;-67
2022/01/15 04:36:51;;;;;;;12.90;7.50;;;5.40;99.90;;;;;;5093057;28;20259;-67
2022/01/15 04:39:18;;;;;;;13.37;7.97;;;5.40;99.90;;;;;;5087459;28;20263;-67
2022/01/15 04:41:45;;;;;;;12.50;7.27;;;5.30;99.90;;;;;;5092326;28;20233;-67
2022/01/15 04:44:12;;;;;;;14.60;8.10;;;5.30;99.90;;;;;;5094308;28;20225;-67
2022/01/15 04:46:40;;;;;;;12.43;6.73;;;5.40;99.90;;;;;;5093091;28;20198;-67
2022/01/15 04:49:07;;;;;;;13.97;7.73;;;5.40;99.90;;;;;;5081997;28;20595;-67
2022/01/15 04:51:35;;;;;;;12.77;7.53;;;5.40;99.90;;;;;;5077230;28;20267;-67
2022/01/15 04:54:04;;;;;;;13.97;7.57;;;5.40;99.90;;;;;;5093817;28;20601;-67
2022/01/15 04:56:31;;;;;;;12.10;6.97;;;5.40;99.90;;;;;;5092064;28;20198;-68
2022/01/15 04:58:58;;;;;;;13.23;7.57;;;5.40;99.90;;;;;;5076465;28;20566;-68
2022/01/15 05:01:25;;;;;;;12.97;7.57;;;5.40;99.90;;;;;;5093738;28;20206;-70
2022/01/15 05:03:52;;;;;;;15.63;8.13;;;5.40;99.90;;;;;;5093071;28;20221;-70
2022/01/15 05:06:19;;;;;;;15.20;8.13;;;5.40;99.90;;;;;;5077864;28;20201;-70
2022/01/15 05:08:51;;;;;;;14.90;7.43;;;5.40;99.90;;;;;;5090570;28;20201;-70
2022/01/15 05:11:29;;;;;;;14.47;7.77;;;5.40;99.90;;;;;;5074863;28;20242;-70
2022/01/15 05:13:56;;;;;;;13.50;7.67;;;5.30;99.90;;;;;;5091956;28;21017;-70
2022/01/15 05:16:24;;;;;;;12.03;7.33;;;5.40;99.90;;;;;;5088731;28;20246;-70
2022/01/15 05:18:51;;;;;;;13.87;7.57;;;5.40;99.90;;;;;;5090215;28;20597;-70
2022/01/15 05:21:18;;;;;;;11.83;6.67;;;5.40;99.90;;;;;;5090771;28;20225;-70
2022/01/15 05:23:45;;;;;;;14.17;7.80;;;5.30;99.90;;;;;;5090004;28;20276;-70
2022/01/15 05:26:12;;;;;;;13.83;8.03;;;5.30;99.90;;;;;;5090481;28;20251;-70
2022/01/15 05:28:40;;;;;;;14.63;8.07;;;5.40;99.90;;;;;;5077602;28;20195;-70
2022/01/15 05:31:07;;;;;;;13.80;7.43;;;5.30;99.90;;;;;;5076625;28;20274;-70
2022/01/15 05:33:34;;;;;;;15.83;7.80;;;5.30;99.90;;;;;;5091775;28;20201;-70
2022/01/15 05:36:01;;;;;;;14.40;7.77;;;5.30;99.90;;;;;;5091118;28;20194;-70
2022/01/15 05:38:28;;;;;;;14.20;8.00;;;5.30;99.90;;;;;;5091412;28;20564;-70
2022/01/15 05:40:55;;;;;;;16.37;8.93;;;5.30;99.90;;;;;;5092158;28;20632;-70
2022/01/15 05:43:23;;;;;;;14.47;7.77;;;5.30;99.90;;;;;;5090884;28;20299;-70
2022/01/15 05:45:51;;;;;;;13.50;8.07;;;5.30;99.90;;;;;;5089782;28;20194;-71
2022/01/15 05:48:18;;;;;;;15.33;7.67;;;5.30;99.90;;;;;;5090234;28;20201;-71
2022/01/15 05:50:46;;;;;;;14.03;7.30;;;5.30;99.90;;;;;;5092727;28;20197;-71
2022/01/15 05:53:14;;;;;;;13.23;7.93;;;5.30;99.90;;;;;;5091937;28;20206;-71
2022/01/15 05:55:41;;;;;;;14.83;8.17;;;5.30;99.90;;;;;;5091536;28;20251;-71
2022/01/15 05:58:08;;;;;;;14.17;8.07;;;5.30;99.90;;;;;;5091456;28;20278;-70
2022/01/15 06:00:35;;;;;;;16.80;8.13;;;5.30;99.90;;;;;;5076635;28;20198;-70
2022/01/15 06:03:03;;;;;;;15.27;7.60;;;5.30;99.90;;;;;;5091348;28;20201;-70
2022/01/15 06:05:31;;;;;;;17.30;8.97;;;5.30;99.90;;;;;;5051801;28;1137552;-71
2022/01/15 06:07:58;;;;;;;16.83;8.83;;;5.30;99.90;;;;;;5089088;28;20202;-71
2022/01/15 06:10:25;;;;;;;23.00;9.03;;;5.30;99.90;;;;;;5092932;28;20198;-71
2022/01/15 06:12:52;;;;;;;17.70;9.50;;;5.30;99.90;;;;;;5093343;28;20257;-71
2022/01/15 06:15:19;;;;;;;15.30;8.07;;;5.30;99.90;;;;;;5077591;28;20260;-71
2022/01/15 06:17:46;;;;;;;17.07;8.87;;;5.30;99.90;;;;;;5090802;28;20207;-71
2022/01/15 06:20:15;;;;;;;17.30;8.70;;;5.30;99.90;;;;;;5090955;28;20267;-70
2022/01/15 06:22:42;;;;;;;16.37;8.03;;;5.20;99.90;;;;;;5092126;28;20522;-70
2022/01/15 06:25:10;;;;;;;19.20;9.10;;;5.30;99.90;;;;;;5083129;28;20331;-70
2022/01/15 06:27:38;;;;;;;19.93;9.33;;;5.30;99.90;;;;;;5077023;28;20988;-70
2022/01/15 06:30:06;;;;;;;21.57;11.23;;;5.20;99.90;;;;;;5072662;28;20264;-70
2022/01/15 06:32:36;;;;;;;20.60;10.23;;;5.30;99.90;;;;;;5087521;28;20251;-70
2022/01/15 06:35:05;;;;;;;20.93;10.33;;;5.20;99.90;;;;;;5090357;28;20205;-70
2022/01/15 06:37:34;;;;;;;22.63;11.20;;;5.20;99.90;;;;;;5092546;28;20270;-70
2022/01/15 06:40:01;;;;;;;21.80;11.43;;;5.20;99.90;;;;;;5092011;28;20282;-70
2022/01/15 06:42:29;;;;;;;22.67;10.90;;;5.20;99.90;;;;;;5090734;28;20275;-70
2022/01/15 06:44:56;;;;;;;23.33;11.47;;;5.20;99.90;;;;;;5089955;28;20290;-70
2022/01/15 06:47:23;;;;;;;21.13;10.60;;;5.20;99.90;;;;;;5078699;28;20264;-71
2022/01/15 06:49:50;;;;;;;22.97;11.60;;;5.20;99.90;;;;;;5078133;28;20202;-70
2022/01/15 06:52:17;;;;;;;22.47;11.20;;;5.20;99.90;;;;;;5073849;28;20244;-70
2022/01/15 06:54:46;;;;;;;22.17;11.07;;;5.20;99.90;;;;;;5091889;28;20247;-71
2022/01/15 06:57:13;;;;;;;23.13;11.77;;;5.20;99.90;;;;;;5087225;28;20202;-70
2022/01/15 06:59:40;;;;;;;23.07;11.67;;;5.20;99.90;;;;;;5072389;28;20225;-70
2022/01/15 07:02:10;;;;;;;25.23;11.90;;;5.20;99.90;;;;;;5089203;28;20198;-70
2022/01/15 07:04:37;;;;;;;22.90;10.70;;;5.20;99.90;;;;;;5083911;28;20232;-70
2022/01/15 07:07:04;;;;;;;24.80;12.60;;;5.20;99.90;;;;;;5082459;28;20202;-71
2022/01/15 07:09:32;;;;;;;23.77;11.77;;;5.20;99.90;;;;;;5078117;28;20206;-70
2022/01/15 07:12:01;;;;;;;25.10;11.80;;;5.10;99.90;;;;;;5087942;28;20202;-70
2022/01/15 07:14:28;;;;;;;26.50;11.20;;;5.20;99.90;;;;;;5077284;28;20248;-70
2022/01/15 07:16:55;;;;;;;23.43;11.40;;;5.10;99.90;;;;;;5075470;28;20234;-70
2022/01/15 07:19:35;;;;;;;24.57;11.77;;;5.10;99.90;;;;;;5091159;28;20606;-70
2022/01/15 07:22:03;;;;;;;26.13;10.87;;;5.10;99.90;;;;;;5079660;28;20318;-70
2022/01/15 07:24:30;;;;;;;28.50;12.53;;;5.10;99.90;;;;;;5072332;28;20230;-70
2022/01/15 07:26:57;;;;;;;24.87;11.97;;;5.10;99.90;;;;;;5073287;28;20629;-70
2022/01/15 07:29:25;;;;;;;26.27;11.70;;;5.20;99.90;;;;;;5091166;28;20206;-70
2022/01/15 07:31:53;;;;;;;28.10;13.80;;;5.10;99.90;;;;;;5071764;28;20210;-70
2022/01/15 07:34:21;;;;;;;27.10;12.90;;;5.10;99.90;;;;;;5072679;28;20213;-70
2022/01/15 07:36:53;;;;;;;25.43;11.93;;;5.10;99.90;;;;;;5072047;28;20190;-70
2022/01/15 07:39:20;;;;;;;23.23;11.40;;;5.10;99.90;;;;;;5083415;28;20658;-70
2022/01/15 07:41:47;;;;;;;24.00;11.40;;;5.10;99.90;;;;;;5080621;28;20606;-70
2022/01/15 07:44:14;;;;;;;25.87;12.60;;;5.10;99.90;;;;;;5079132;28;20680;-70
2022/01/15 07:46:43;;;;;;;25.30;12.40;;;5.20;99.90;;;;;;5095837;28;20198;-70
2022/01/15 07:49:10;;;;;;;23.13;11.97;;;5.10;99.90;;;;;;5090867;28;20669;-70
2022/01/15 07:51:37;;;;;;;23.23;11.93;;;5.10;99.90;;;;;;5091742;28;20205;-70
2022/01/15 07:54:04;;;;;;;25.00;11.90;;;5.10;99.90;;;;;;5095323;28;20208;-70
2022/01/15 07:56:31;;;;;;;22.03;11.07;;;5.20;99.90;;;;;;5089223;28;20230;-70
2022/01/15 07:58:58;;;;;;;23.27;12.30;;;5.20;99.90;;;;;;5092892;28;20712;-70
2022/01/15 08:01:26;;;;;;;21.53;11.43;;;5.20;99.90;;;;;;5094755;28;20201;-70
2022/01/15 08:03:54;;;;;;;29.67;15.77;;;5.20;99.90;;;;;;5095915;28;20808;-70
2022/01/15 08:06:21;;;;;;;23.77;11.63;;;5.20;99.90;;;;;;5091752;28;20201;-70
2022/01/15 08:08:49;;;;;;;22.70;11.97;;;5.20;99.90;;;;;;5097032;28;20229;-71
2022/01/15 08:11:16;;;;;;;22.00;11.03;;;5.20;99.90;;;;;;5092876;28;20258;-70
2022/01/15 08:13:43;;;;;;;25.37;11.53;;;5.20;99.90;;;;;;5093437;28;20243;-70
2022/01/15 08:16:10;;;;;;;24.97;11.63;;;5.30;99.90;;;;;;5093782;28;20635;-70
2022/01/15 08:18:38;;;;;;;24.23;11.33;;;5.20;99.90;;;;;;5093491;28;20613;-70
2022/01/15 08:21:07;;;;;;;22.13;11.23;;;5.30;99.90;;;;;;5095954;28;20528;-71
2022/01/15 08:23:35;;;;;;;24.27;11.77;;;5.20;99.90;;;;;;5097725;28;20220;-70
2022/01/15 08:26:03;;;;;;;25.10;12.23;;;5.20;99.90;;;;;;5101486;28;20226;-70
2022/01/15 08:28:30;;;;;;;24.20;11.67;;;5.30;99.90;;;;;;5090649;28;20300;-69
2022/01/15 08:30:57;;;;;;;26.93;13.37;;;5.30;99.90;;;;;;5089768;28;20236;-68
2022/01/15 08:33:24;;;;;;;25.40;12.87;;;5.30;99.90;;;;;;5099688;28;20254;-68
2022/01/15 08:35:52;;;;;;;26.73;12.30;;;5.40;99.90;;;;;;5096673;28;20254;-69
2022/01/15 08:38:21;;;;;;;25.83;12.27;;;5.30;99.90;;;;;;5092161;28;20212;-69
2022/01/15 08:40:49;;;;;;;25.57;13.10;;;5.40;99.90;;;;;;5091664;28;20205;-68
2022/01/15 08:43:17;;;;;;;44.53;27.17;;;5.50;99.90;;;;;;5090298;28;20205;-68
2022/01/15 08:45:46;;;;;;;29.67;14.73;;;5.50;99.90;;;;;;5093283;28;20214;-68
2022/01/15 08:48:14;;;;;;;29.73;15.77;;;5.50;99.90;;;;;;5097574;28;20208;-68
2022/01/15 08:50:42;;;;;;;27.93;14.00;;;5.60;99.90;;;;;;5093595;28;20247;-68
2022/01/15 08:53:09;;;;;;;27.23;14.33;;;5.60;99.90;;;;;;5086710;28;20202;-68
2022/01/15 08:55:39;;;;;;;25.07;12.77;;;5.70;99.90;;;;;;5087558;28;20205;-69
2022/01/15 08:58:06;;;;;;;26.30;12.53;;;5.70;99.90;;;;;;5093268;28;20205;-68
2022/01/15 09:00:33;;;;;;;25.27;13.27;;;5.70;99.90;;;;;;5093565;28;20247;-69
2022/01/15 09:03:00;;;;;;;26.67;13.77;;;5.60;99.90;;;;;;5094818;28;20205;-68
2022/01/15 09:05:27;;;;;;;24.47;13.23;;;5.70;99.90;;;;;;5093341;28;20675;-68
2022/01/15 09:07:56;;;;;;;25.80;13.40;;;5.70;99.90;;;;;;5095468;28;20233;-69
2022/01/15 09:10:23;;;;;;;26.37;13.63;;;5.80;99.90;;;;;;5100842;28;20253;-68
2022/01/15 09:12:52;;;;;;;24.97;13.43;;;5.80;99.90;;;;;;5105858;28;20202;-68
2022/01/15 09:15:19;;;;;;;26.77;14.47;;;5.90;99.90;;;;;;5095733;28;20570;-68
2022/01/15 09:17:47;;;;;;;28.50;15.87;;;5.90;99.90;;;;;;5096863;28;20600;-68
2022/01/15 09:20:14;;;;;;;27.23;15.00;;;5.90;99.90;;;;;;5101160;28;20200;-69
2022/01/15 09:22:41;;;;;;;25.40;15.07;;;6.00;99.90;;;;;;5098446;28;20202;-68
2022/01/15 09:25:10;;;;;;;27.50;15.23;;;6.00;99.90;;;;;;5099534;28;20257;-68
2022/01/15 09:30:22;;;;;;;26.40;14.27;;;6.00;99.90;;;;;;5092863;28;20555;-68
2022/01/15 09:32:51;;;;;;;27.93;16.37;;;6.10;99.90;;;;;;5097981;28;20202;-69
2022/01/15 09:35:27;;;;;;;28.57;16.37;;;6.10;99.90;;;;;;5103823;28;20604;-68
2022/01/15 09:37:55;;;;;;;29.73;16.27;;;6.10;99.90;;;;;;5094168;28;20202;-68
2022/01/15 09:40:25;;;;;;;29.00;16.50;;;6.10;99.90;;;;;;5091991;28;20555;-68
2022/01/15 09:42:52;;;;;;;28.80;15.33;;;6.10;99.90;;;;;;5096062;28;20205;-68
2022/01/15 09:45:23;;;;;;;30.73;16.30;;;6.10;99.90;;;;;;5096347;28;20265;-68
2022/01/15 09:47:56;;;;;;;27.63;15.27;;;6.10;99.90;;;;;;5094228;28;20190;-68
2022/01/15 09:50:25;;;;;;;30.53;16.20;;;6.10;99.90;;;;;;5099214;28;20652;-69
2022/01/15 09:52:54;;;;;;;25.40;14.67;;;6.10;99.90;;;;;;5095918;28;20205;-68
2022/01/15 09:55:22;;;;;;;27.07;15.00;;;6.20;99.90;;;;;;5096211;28;20250;-68
2022/01/15 09:57:50;;;;;;;26.73;14.30;;;6.20;99.90;;;;;;5099767;28;20210;-68
2022/01/15 10:00:20;;;;;;;25.60;14.70;;;6.20;99.90;;;;;;5094100;28;20206;-68
2022/01/15 10:02:50;;;;;;;28.63;15.83;;;6.20;99.90;;;;;;5094565;28;20262;-68
2022/01/15 10:05:18;;;;;;;27.33;14.93;;;6.10;99.90;;;;;;5101134;28;20260;-68
2022/01/15 10:07:56;;;;;;;24.63;14.13;;;6.20;99.90;;;;;;5095201;28;20201;-68
2022/01/15 10:10:24;;;;;;;25.40;14.70;;;6.30;99.90;;;;;;5094802;28;20201;-68
2022/01/15 10:12:52;;;;;;;26.77;14.90;;;6.20;99.90;;;;;;5092963;28;20251;-69
2022/01/15 10:15:20;;;;;;;26.57;14.67;;;6.20;99.90;;;;;;5100441;28;20209;-68
2022/01/15 10:17:48;;;;;;;25.83;14.07;;;6.20;99.90;;;;;;5101218;28;20241;-69
2022/01/15 10:20:18;;;;;;;25.23;13.90;;;6.20;99.90;;;;;;5096421;28;20274;-68
2022/01/15 10:22:47;;;;;;;27.77;14.67;;;6.20;99.90;;;;;;5096923;28;20204;-68
2022/01/15 10:25:19;;;;;;;25.77;13.60;;;6.20;99.90;;;;;;5093693;28;20718;-68
2022/01/15 10:27:48;;;;;;;24.83;14.90;;;6.30;99.90;;;;;;5093707;28;20208;-69
2022/01/15 10:30:17;;;;;;;25.90;13.73;;;6.30;99.90;;;;;;5099844;28;20251;-68
2022/01/15 10:32:57;;;;;;;26.40;14.17;;;6.30;99.90;;;;;;5097564;28;20270;-68
2022/01/15 10:35:25;;;;;;;25.67;14.00;;;6.30;99.90;;;;;;5091477;28;20209;-68
2022/01/15 10:37:54;;;;;;;25.07;13.40;;;6.40;99.90;;;;;;5101180;28;20255;-69
2022/01/15 10:40:25;;;;;;;25.60;14.20;;;6.30;99.90;;;;;;5101826;28;20306;-68
2022/01/15 10:42:55;;;;;;;25.27;14.13;;;6.40;99.90;;;;;;5095795;28;20248;-68
2022/01/15 10:45:24;;;;;;;25.80;14.40;;;6.40;99.90;;;;;;5097240;28;20572;-69
2022/01/15 10:47:55;;;;;;;23.93;13.20;;;6.40;99.90;;;;;;5103608;28;20322;-68
2022/01/15 10:50:24;;;;;;;24.63;14.70;;;6.40;99.90;;;;;;5098929;28;20263;-68
2022/01/15 10:52:52;;;;;;;26.53;14.83;;;6.40;99.90;;;;;;5096057;28;20194;-69
2022/01/15 10:55:25;;;;;;;25.63;14.87;;;6.40;99.90;;;;;;5097972;28;20287;-68
2022/01/15 10:57:56;;;;;;;24.10;13.53;;;6.40;99.90;;;;;;5097492;28;20258;-69
2022/01/15 11:00:26;;;;;;;23.67;13.60;;;6.40;99.90;;;;;;5096123;28;20348;-68
2022/01/15 11:02:57;;;;;;;23.50;14.47;;;6.40;99.90;;;;;;5097487;28;20201;-69
2022/01/15 11:05:34;;;;;;;23.67;14.13;;;6.50;99.90;;;;;;5095045;28;20290;-69
2022/01/15 11:08:16;;;;;;;23.33;12.87;;;6.50;99.90;;;;;;5084751;28;20202;-69
2022/01/15 11:10:51;;;;;;;24.17;13.33;;;6.50;99.90;;;;;;5093965;28;20295;-68
2022/01/15 11:13:21;;;;;;;21.00;11.83;;;6.50;99.90;;;;;;5089616;28;20581;-67
2022/01/15 11:15:54;;;;;;;21.63;12.37;;;6.60;99.90;;;;;;5089949;28;20248;-68
2022/01/15 11:18:24;;;;;;;23.73;12.70;;;6.60;99.90;;;;;;5089473;28;20206;-68
2022/01/15 11:20:53;;;;;;;21.87;11.90;;;6.60;99.90;;;;;;5088590;28;20251;-68
2022/01/15 11:23:22;;;;;;;23.13;12.50;;;6.60;99.90;;;;;;5089934;28;20251;-68
2022/01/15 11:25:50;;;;;;;22.73;12.23;;;6.60;99.90;;;;;;5086361;28;20225;-68
2022/01/15 11:28:19;;;;;;;21.13;12.50;;;6.60;99.90;;;;;;5089926;28;20236;-68
2022/01/15 11:30:48;;;;;;;21.80;12.57;;;6.60;99.90;;;;;;5089838;28;20197;-68
2022/01/15 11:33:19;;;;;;;21.20;12.73;;;6.60;99.90;;;;;;5089615;28;20924;-69
2022/01/15 11:35:48;;;;;;;24.47;14.03;;;6.60;99.90;;;;;;5089211;28;20200;-68
2022/01/15 11:38:48;;;;;;;22.47;12.47;;;6.70;99.90;;;;;;5089356;28;20757;-68
2022/01/15 11:41:38;;;;;;;23.17;12.90;;;6.60;99.90;;;;;;5089098;28;20239;-68
2022/01/15 11:44:06;;;;;;;22.57;12.80;;;6.70;99.90;;;;;;5071960;28;20644;-68
2022/01/15 11:46:39;;;;;;;24.57;13.63;;;6.70;99.90;;;;;;5089487;28;20213;-68
2022/01/15 11:49:44;;;;;;;22.70;13.37;;;6.80;99.90;;;;;;5087006;28;20235;-68
2022/01/15 11:52:43;;;;;;;23.03;13.20;;;6.80;99.90;;;;;;5081354;28;20254;-68
2022/01/15 11:55:23;;;;;;;23.90;13.13;;;6.80;99.90;;;;;;5088922;28;20305;-68
2022/01/15 11:57:59;;;;;;;21.07;12.67;;;6.80;99.90;;;;;;5089578;28;20217;-68
2022/01/15 12:00:34;;;;;;;19.50;11.40;;;6.90;99.90;;;;;;5088565;28;20205;-71
2022/01/15 12:03:06;;;;;;;20.77;11.87;;;6.90;99.90;;;;;;5088312;28;20208;-70
2022/01/15 12:05:36;;;;;;;22.93;12.77;;;6.90;99.90;;;;;;5086478;28;20225;-70
2022/01/15 12:08:24;;;;;;;23.20;14.40;;;6.90;99.90;;;;;;5083999;28;20267;-69
2022/01/15 12:10:54;;;;;;;22.87;14.00;;;6.90;99.90;;;;;;5073720;28;20624;-68
2022/01/15 12:13:24;;;;;;;21.73;13.60;;;6.90;99.90;;;;;;5091706;28;20205;-69
2022/01/15 12:16:25;;;;;;;22.73;12.77;;;6.90;99.90;;;;;;5080434;28;20202;-69
2022/01/15 12:18:53;;;;;;;23.13;12.60;;;6.80;99.90;;;;;;5085935;28;20210;-69
2022/01/15 12:21:41;;;;;;;22.47;13.00;;;6.80;99.90;;;;;;5078034;28;20232;-69
2022/01/15 12:24:51;;;;;;;21.97;12.20;;;6.90;99.90;;;;;;5073221;28;20205;-69
2022/01/15 12:27:25;;;;;;;21.40;11.50;;;6.90;99.90;;;;;;5083902;28;20235;-69
2022/01/15 12:30:00;;;;;;;20.30;11.70;;;6.90;99.90;;;;;;5086980;28;20213;-69
2022/01/15 12:32:29;;;;;;;20.00;11.90;;;6.90;99.90;;;;;;5077055;28;20212;-68
2022/01/15 12:34:57;;;;;;;21.83;12.10;;;7.00;99.90;;;;;;5084657;28;20204;-68
2022/01/15 12:37:24;;;;;;;20.60;11.43;;;7.00;99.90;;;;;;5092281;28;20274;-68
2022/01/15 12:39:52;;;;;;;26.23;15.03;;;7.00;99.90;;;;;;5092697;28;20713;-68
2022/01/15 12:42:22;;;;;;;29.27;17.90;;;7.00;99.90;;;;;;5093844;28;20205;-68
2022/01/15 12:44:53;;;;;;;26.07;15.77;;;7.00;99.90;;;;;;5093722;28;20205;-68
2022/01/15 12:47:22;;;;;;;21.47;12.37;;;6.90;99.90;;;;;;5076182;28;20906;-68
2022/01/15 12:49:52;;;;;;;22.50;13.07;;;6.80;99.90;;;;;;5076361;28;20269;-68
2022/01/15 12:52:23;;;;;;;20.43;11.33;;;7.00;99.90;;;;;;5074701;28;20605;-68
2022/01/15 12:54:51;;;;;;;20.57;11.83;;;6.90;99.90;;;;;;5088056;28;20206;-68
2022/01/15 12:57:40;;;;;;;21.17;11.33;;;6.90;99.90;;;;;;5100552;28;20290;-68
2022/01/15 13:00:10;;;;;;;17.90;10.07;;;6.90;99.90;;;;;;5090612;28;20721;-68
2022/01/15 13:02:37;;;;;;;18.23;10.43;;;6.90;99.90;;;;;;5093998;28;20210;-68
2022/01/15 13:05:04;;;;;;;19.13;10.50;;;6.90;99.90;;;;;;5087668;28;20612;-68
2022/01/15 13:07:47;;;;;;;20.47;11.20;;;6.90;99.90;;;;;;5094051;28;20230;-68